Logo AVAMET
Benvolgut visitant, si us plau, ingressa Recuperar contrasenya
AVAMET paisatges

Xixona castell

Dades diàries. Acumulats / Últims 30 dies disponibles

Data Temperatura (°C) Humitat rel. (%) Pressió rel. (hPa) Vent (km/h) Precipitació
Mínima Mitjana Màxima Amplitud
tèrmica
Mínima Mitjana Màxima Mínima Mitjana Màxima Predom. Mitjana Ràfega
màxima
Total
(mm)
Índex-n
Mínima Mitjana Màxima Mínima Mitjana Màxima n
0 a 1
P0 max
mm 5'
Dades mensuals acumulades fins l'últim dia disponible
03/2020 5,3 9,7 16,1 12,6 7,2 16,1 24,7 19,4 0 61 100 1.003 1.016 1.026   13,0 107,8 59,8
Dades anuals acumulades fins l'últim dia disponible
2020 1,6 8,9 16,2 12,1 7,2 15,8 24,7 23,1 0 61 100 1.003 1.022 1.035   10,0 123,9 116,6
Últims 30 dies disponibles
27-03-2020     6,0     7,2 7,2 70 74 76 1.010 1.012 1.014 NW 3,2 38,6 14,0 0,76 2,00
26-03-2020 5,3     9,9     13,9 8,6 43 62 80 1.007 1.008 1.011 NW 6,8 41,8 0,0
25-03-2020 6,4     7,7     9,9 3,5 0 74 80 1.014 1.015 1.016 NW 5,1 43,5 1,4
24-03-2020 8,6     10,2     12,1 3,5 0 72 77 1.012 1.014 1.015 NW 13,8 59,5 7,2 0,89 3,20
23-03-2020 9,0     11,6     15,1 6,1 0 72 83 1.013 1.014 1.016 NW 7,9 41,8 6,2 0,42 0,40
22-03-2020 8,4     9,8     11,7 3,3 73 77 83 1.009 1.011 1.013 NW 2,3 19,3 7,0 0,42 0,80
21-03-2020 9,8     10,6     13,4 3,6 68 75 100 1.010 1.012 1.016 NO 4,3 24,1 11,2 0,30 0,80
20-03-2020 8,9     11,2     13,7 4,8 61 72 76 1.014 1.016 1.018 NW 7,2 32,2 0,0
19-03-2020     11,7     15,9 15,9 57 69 75 1.018 1.020 1.023 NW 7,6 32,2 0,0
18-03-2020 10,1     12,2     14,5 4,4 64 70 74 1.022 1.024 1.025 NW 20,1 64,4 0,0
17-03-2020 7,7     11,4     14,1 6,4 70 78 84 1.018 1.022 1.025 NW 14,8 59,5 4,4 0,40
16-03-2020 8,0     10,5     11,8 3,8 77 82 84 1.011 1.013 1.018 NW 3,7 37,0 6,8 0,26 0,60
15-03-2020 9,3     11,4     15,8 6,5 45 60 77 1.017 1.018 1.019 NW 3,9 16,1 0,0
14-03-2020 11,1     13,4     18,4 7,3 58 68 77 1.017 1.018 1.020 NW 3,5 24,1 0,0
13-03-2020 12,0     16,4     21,6 9,6 38 51 67 1.014 1.016 1.018 NW 4,8 20,9 0,0
12-03-2020 16,1     19,4     24,2 8,1 34 42 50 1.016 1.018 1.021 NW 4,3 16,1 0,0
11-03-2020 12,1     20,2     24,7 12,6 31 41 68 1.021 1.022 1.024 NW 3,9 22,5 0,0
10-03-2020 9,7     12,9     16,8 7,1 39 60 74 1.021 1.024 1.026 NW 2,7 24,1 0,0
09-03-2020 11,7     15,4     18,7 7,0 32 42 56 1.019 1.020 1.022 NW 16,6 64,4 0,0
08-03-2020 7,8     14,6     20,2 12,4 25 45 61 1.020 1.022 1.024 NW 10,9 66,0 0,0
07-03-2020 7,4     10,3     16,2 8,8 37 47 62 1.019 1.022 1.025 NW 15,8 62,8 0,0
06-03-2020 8,4     11,3     13,9 5,5 30 48 66 1.011 1.014 1.020 NW 33,0 101,4 0,4
05-03-2020 12,1     15,2     19,9 7,8 44 55 63 1.007 1.011 1.016 NW 32,5 85,3 0,0
04-03-2020 14,3     15,7     18,4 4,1 46 60 67 1.015 1.017 1.019 NW 34,4 91,7 0,0
03-03-2020 8,6     12,5     16,6 8,0 41 53 65 1.012 1.015 1.017 NW 38,5 107,8 0,4
02-03-2020 9,8     14,7     18,9 9,1 31 47 60 1.003 1.008 1.016 NW 24,3 98,2 0,8
01-03-2020     14,9     17,7 17,7 44 55 65 1.011 1.012 1.014 NW 24,0 83,7 0,0
29-02-2020 10,0     15,9     21,9 11,9 24 42 56 1.011 1.013 1.017 NO 17,2 77,2 0,0
28-02-2020 10,4     15,9     20,3 9,9 27 38 58 1.017 1.019 1.021 NW 7,6 49,9 0,0
27-02-2020 11,6     15,2     19,9 8,3 29 39 49 1.017 1.019 1.021 NW 16,9 69,2 0,0
Últims 13 mesos disponibles
02/2020 5,4 10,9 16,2 13,9 11,9 17,8 23,9 18,5 32 57 77 1.013 1.024 1.032 NW 6,9 93,3 1,0
01/2020 1,6 6,7 12,3 9,8 8,2 13,6 17,6 16,0 47 66 81 1.014 1.024 1.032 NW 10,5 123,9 55,8
12/2019 5,8 9,3 13,9 12,4 10,6 15,6 22,9 17,1 36 62 77 1.005 1.018 1.032 NW 13,0 133,6 32,0
11/2019 4,5 10,1 18,2 12,6 10,2 15,7 22,9 18,4 48 60 79 999 1.010 1.018 NW 23,8 112,7 32,8
10/2019 9,8 15,1 19,6 18,1 13,2 22,0 30,1 20,3 41 60 75 1.008 1.015 1.021 NW 7,7 93,3 43,2
09/2019 12,4 18,0 20,9 21,2 19,5 25,1 30,4 18,0 46 66 75 1.009 1.016 1.021 NW 7,5 83,7 38,2
08/2019 17,6 20,9 25,9 24,7 25,1 29,3 36,2 18,6 31 59 72 1.009 1.014 1.018 SSE 6,4 54,7 17,4
07/2019 18,1 20,9 23,9 25,6 26,4 30,5 36,6 18,5 29 50 73 1.005 1.012 1.018 SSE 6,9 83,7 0,2
06/2019 12,8 17,3 25,8 22,0 21,3 26,3 35,4 22,6 26 50 76 1.007 1.013 1.021 SSE 7,0 72,4 2,0
05/2019 8,5 13,0 18,3 16,9 15,4 20,8 27,0 18,5 40 61 77 1.005 1.014 1.024 SSE 6,4 96,6 4,8
04/2019 6,4 9,7 12,5 13,1 12,8 17,0 24,6 18,2 36 65 84 999 1.012 1.024 SSE 13,1 103,0 87,0
03/2019 4,4 9,1 13,6 12,9 9,9 16,9 23,5 19,1 26 52 78 1.010 1.022 1.029 NW 9,6 106,2 19,8
02/2019 1,4 7,2 13,4 11,1 9,5 15,3 22,1 20,7 23 53 75 996 1.024 1.032 NW 9,4 114,3 1,4
Tots els anys disponibles
2019 1,4 13,2 25,9 16,7 8,8 20,7 36,6 35,2 23 58 84 996 1.016 1.032 NW 10,3 133,6 280,0
2018 1,1 13,3 24,8 16,8 5,9 20,9 33,4 32,3 30 64 82 998 1.016 1.026 NW 10,1 119,1 312,4
2017 -0,4 13,1 25,9 16,7 4,3 20,9 34,2 34,6 9,0 123,9 219,0
2016 2,6 13,2 28,0 16,5 8,9 20,5 37,3 34,7 9,7 132,0 272,6
Temperatura (°C)
Humitat relativa (%)
Velocitat del vent i ràfega màxima (km/h)
Direcció del vent (°)
Pressió (hPa)
Precipitació (mm)
Nota sobre les dades: s'avisa a l'usuari de la provisionalitat i no oficialitat d'aquestes dades
Logo AVAMET blanc
Web allotjada a Sollutia
Llicència de Creative CommonsLa web d'AVAMET i els seus continguts estan subjectes a una llicència de
Reconeixement - No Comercial - Compartir igual
Últimes estacions:  Altea - Com. Regants (Soci), Almoines (Inforatge), Beniparrell (Inforatge), Albal (Inforatge), Almussafes - Parc Industrial (Inforatge), La Vilavella (Soci), la Serratella (soci) - - -